createdAt,value
2023-01-10T00:02:12.888Z,21.58
2023-01-10T00:04:41.202Z,20.83
2023-01-10T00:07:10.097Z,20.48
2023-01-10T00:09:39.663Z,20.02
2023-01-10T00:12:46.638Z,24.35
2023-01-10T00:15:14.934Z,20.00
2023-01-10T00:17:42.960Z,21.98
2023-01-10T00:20:12.300Z,23.35
2023-01-10T00:22:40.771Z,20.98
2023-01-10T00:25:09.655Z,26.65
2023-01-10T00:27:37.928Z,21.77
2023-01-10T00:30:14.101Z,26.42
2023-01-10T00:32:44.166Z,24.83
2023-01-10T00:35:13.042Z,24.52
2023-01-10T00:37:41.494Z,21.60
2023-01-10T00:40:12.817Z,21.08
2023-01-10T00:43:00.203Z,26.42
2023-01-10T00:45:28.484Z,23.63
2023-01-10T00:47:56.706Z,23.75
2023-01-10T00:50:24.656Z,23.90
2023-01-10T00:52:53.415Z,21.90
2023-01-10T00:55:21.773Z,23.30
2023-01-10T00:57:49.834Z,25.17
2023-01-10T01:00:18.218Z,21.33
2023-01-10T01:02:46.457Z,23.38
2023-01-10T01:05:14.462Z,20.05
2023-01-10T01:07:42.468Z,18.95
2023-01-10T01:10:28.715Z,20.10
2023-01-10T01:13:05.808Z,21.15
2023-01-10T01:15:35.360Z,22.38
2023-01-10T01:18:04.597Z,21.40
2023-01-10T01:20:33.319Z,19.65
2023-01-10T01:23:01.565Z,19.40
2023-01-10T01:25:29.592Z,19.42
2023-01-10T01:27:57.698Z,22.85
2023-01-10T01:30:26.036Z,19.33
2023-01-10T01:32:54.062Z,23.25
2023-01-10T01:35:22.479Z,23.50
2023-01-10T01:37:51.030Z,23.88
2023-01-10T01:40:22.744Z,20.52
2023-01-10T01:45:24.102Z,23.35
2023-01-10T01:48:16.191Z,23.40
2023-01-10T01:53:51.201Z,19.98
2023-01-10T01:56:33.048Z,20.65
2023-01-10T01:59:20.824Z,20.27
2023-01-10T02:01:55.781Z,21.15
2023-01-10T02:04:48.901Z,20.65
2023-01-10T02:07:17.938Z,20.23
2023-01-10T02:10:00.269Z,21.55
2023-01-10T02:12:32.154Z,21.23
2023-01-10T02:15:00.571Z,22.58
2023-01-10T02:17:29.127Z,33.33
2023-01-10T02:20:09.775Z,19.75
2023-01-10T02:23:14.879Z,21.98
2023-01-10T02:26:16.542Z,21.05
2023-01-10T02:29:12.199Z,21.52
2023-01-10T02:32:17.912Z,22.40
2023-01-10T02:35:20.557Z,24.30
2023-01-10T02:37:51.781Z,23.83
2023-01-10T02:40:37.396Z,21.98
2023-01-10T02:43:18.743Z,22.70
2023-01-10T02:45:51.023Z,25.38
2023-01-10T02:48:19.733Z,23.50
2023-01-10T02:51:15.862Z,23.92
2023-01-10T02:54:18.803Z,23.52
2023-01-10T02:56:58.890Z,23.80
2023-01-10T02:59:57.533Z,22.88
2023-01-10T03:02:38.478Z,23.67
2023-01-10T03:05:22.599Z,19.30
2023-01-10T03:07:56.546Z,22.10
2023-01-10T03:11:00.881Z,26.80
2023-01-10T03:13:52.478Z,23.60
2023-01-10T03:16:29.915Z,17.85
2023-01-10T03:19:23.039Z,19.20
2023-01-10T03:21:57.600Z,18.58
2023-01-10T03:24:39.019Z,18.48
2023-01-10T03:27:19.342Z,19.98
2023-01-10T03:29:55.127Z,18.80
2023-01-10T03:32:28.472Z,20.63
2023-01-10T03:34:58.799Z,17.52
2023-01-10T03:37:34.780Z,19.63
2023-01-10T03:40:39.186Z,19.10
2023-01-10T03:44:00.209Z,20.02
2023-01-10T03:47:20.094Z,16.70
2023-01-10T03:49:54.613Z,18.08
2023-01-10T03:52:24.097Z,19.13
2023-01-10T03:54:54.152Z,18.73
2023-01-10T03:57:24.360Z,20.10
2023-01-10T03:59:58.570Z,18.83
2023-01-10T04:02:32.391Z,17.23
2023-01-10T04:05:00.385Z,18.58
2023-01-10T04:07:28.642Z,17.20
2023-01-10T04:09:56.968Z,20.88
2023-01-10T04:12:25.001Z,22.83
2023-01-10T04:14:52.870Z,19.05
2023-01-10T04:17:21.120Z,22.15
2023-01-10T04:19:49.479Z,22.45
2023-01-10T04:22:17.484Z,21.92
2023-01-10T04:24:47.397Z,21.05
2023-01-10T04:27:15.383Z,23.55
2023-01-10T04:29:43.348Z,23.67
2023-01-10T04:32:11.518Z,21.48
2023-01-10T04:34:39.571Z,23.73
2023-01-10T04:37:07.474Z,26.10
2023-01-10T04:39:36.210Z,22.63
2023-01-10T04:42:04.514Z,23.08
2023-01-10T04:44:32.818Z,24.20
2023-01-10T04:47:01.084Z,21.45
2023-01-10T04:49:29.095Z,22.90
2023-01-10T04:51:57.180Z,24.30
2023-01-10T04:54:25.702Z,22.52
2023-01-10T04:56:53.683Z,23.55
2023-01-10T04:59:21.542Z,27.42
2023-01-10T05:01:50.096Z,26.30
2023-01-10T05:04:20.725Z,25.45
2023-01-10T05:06:49.559Z,23.37
2023-01-10T05:09:17.912Z,25.75
2023-01-10T05:11:46.143Z,24.48
2023-01-10T05:14:14.042Z,30.00
2023-01-10T05:16:43.225Z,29.23
2023-01-10T05:19:12.417Z,25.33
2023-01-10T05:21:40.739Z,30.80
2023-01-10T05:24:10.278Z,27.42
2023-01-10T05:26:38.429Z,31.52
2023-01-10T05:29:06.382Z,28.88
2023-01-10T05:31:34.802Z,32.53
2023-01-10T05:34:03.015Z,29.88
2023-01-10T05:36:30.951Z,32.53
2023-01-10T05:38:59.004Z,33.05
2023-01-10T05:41:27.194Z,30.13
2023-01-10T05:43:55.129Z,32.97
2023-01-10T05:46:23.862Z,31.90
2023-01-10T05:48:53.480Z,43.08
2023-01-10T05:51:21.347Z,32.80
2023-01-10T05:53:50.433Z,32.85
2023-01-10T05:56:19.022Z,47.65
2023-01-10T05:58:51.383Z,32.58
2023-01-10T06:01:22.259Z,45.38
2023-01-10T06:03:50.192Z,50.20
2023-01-10T06:06:18.129Z,32.58
2023-01-10T06:08:46.263Z,32.30
2023-01-10T06:11:14.195Z,32.05
2023-01-10T06:13:42.211Z,32.05
2023-01-10T06:16:13.933Z,30.55
2023-01-10T06:18:41.976Z,30.77
2023-01-10T06:21:10.209Z,30.60
2023-01-10T06:23:39.747Z,34.13
2023-01-10T06:26:08.782Z,33.95
2023-01-10T06:28:36.954Z,33.78
2023-01-10T06:31:05.462Z,34.08
2023-01-10T06:33:34.120Z,35.58
2023-01-10T06:36:02.897Z,35.03
2023-01-10T06:38:31.146Z,36.10
2023-01-10T06:41:13.186Z,37.92
2023-01-10T06:43:43.622Z,35.97
2023-01-10T06:46:13.638Z,31.02
2023-01-10T06:48:44.111Z,32.20
2023-01-10T06:51:14.117Z,36.72
2023-01-10T06:53:43.660Z,33.88
2023-01-10T06:56:11.995Z,31.83
2023-01-10T06:58:40.432Z,35.65
2023-01-10T07:01:15.668Z,31.40
2023-01-10T07:03:43.993Z,32.78
2023-01-10T07:06:12.477Z,34.78
2023-01-10T07:08:46.986Z,32.42
2023-01-10T07:11:17.823Z,32.95
2023-01-10T07:13:46.113Z,37.05
2023-01-10T07:16:16.694Z,34.85
2023-01-10T07:18:45.075Z,32.22
2023-01-10T07:21:13.806Z,35.22
2023-01-10T07:23:42.882Z,30.50
2023-01-10T07:26:17.703Z,34.97
2023-01-10T07:28:51.093Z,33.05
2023-01-10T07:31:21.223Z,27.50
2023-01-10T07:33:50.808Z,33.20
2023-01-10T07:36:20.180Z,56.67
2023-01-10T07:38:48.495Z,32.85
2023-01-10T07:41:16.747Z,31.92
2023-01-10T07:43:44.816Z,35.40
2023-01-10T07:46:13.138Z,31.60
2023-01-10T07:48:42.163Z,31.42
2023-01-10T07:51:10.814Z,36.10
2023-01-10T07:53:39.387Z,36.30
2023-01-10T07:56:08.517Z,37.25
2023-01-10T07:58:37.047Z,32.65
2023-01-10T08:01:07.093Z,34.70
2023-01-10T08:03:36.126Z,34.08
2023-01-10T08:06:10.213Z,37.90
2023-01-10T08:08:39.423Z,33.22
2023-01-10T08:11:08.041Z,36.10
2023-01-10T08:13:36.737Z,40.92
2023-01-10T08:16:07.629Z,35.40
2023-01-10T08:18:39.727Z,40.28
2023-01-10T08:23:39.144Z,36.70
2023-01-10T08:26:07.818Z,47.63
2023-01-10T08:28:36.211Z,40.15
2023-01-10T08:31:09.938Z,44.58
2023-01-10T08:33:40.485Z,45.80
2023-01-10T08:36:20.198Z,46.45
2023-01-10T08:38:50.932Z,45.60
2023-01-10T08:41:19.093Z,47.30
2023-01-10T08:43:53.100Z,59.83
2023-01-10T08:46:21.195Z,50.13
2023-01-10T08:48:50.568Z,52.63
2023-01-10T08:51:19.606Z,47.45
2023-01-10T08:53:47.650Z,48.55
2023-01-10T08:56:15.687Z,67.68
2023-01-10T08:58:44.433Z,48.60
2023-01-10T09:01:13.834Z,46.72
2023-01-10T09:03:42.029Z,45.35
2023-01-10T09:06:11.132Z,54.60
2023-01-10T09:08:39.340Z,51.72
2023-01-10T09:11:07.500Z,48.63
2023-01-10T09:13:35.740Z,47.40
2023-01-10T09:16:04.468Z,45.42
2023-01-10T09:18:33.346Z,48.72
2023-01-10T09:21:03.203Z,47.88
2023-01-10T09:23:31.936Z,58.58
2023-01-10T09:26:01.623Z,52.28
2023-01-10T09:28:30.027Z,51.05
2023-01-10T09:30:58.076Z,42.50
2023-01-10T09:33:28.057Z,44.20
2023-01-10T09:35:59.381Z,71.50
2023-01-10T09:38:27.378Z,45.10
2023-01-10T09:41:18.320Z,38.33
2023-01-10T09:44:24.331Z,32.88
2023-01-10T09:46:58.609Z,38.75
2023-01-10T09:49:52.598Z,39.63
2023-01-10T09:52:35.028Z,38.60
2023-01-10T09:55:19.276Z,37.08
2023-01-10T09:57:49.646Z,40.47
2023-01-10T10:00:23.355Z,47.10
2023-01-10T10:02:55.963Z,40.05
2023-01-10T10:05:27.469Z,40.05
2023-01-10T10:08:00.781Z,34.03
2023-01-10T10:11:21.034Z,31.45
2023-01-10T10:14:14.019Z,32.63
2023-01-10T10:17:13.403Z,40.92
2023-01-10T10:20:20.206Z,35.75
2023-01-10T10:23:34.400Z,50.00
2023-01-10T10:26:21.375Z,40.50
2023-01-10T10:29:21.349Z,38.30
2023-01-10T10:32:21.999Z,34.80
2023-01-10T10:35:42.375Z,39.40
2023-01-10T10:38:31.455Z,39.70
2023-01-10T10:41:01.770Z,44.78
2023-01-10T10:43:38.794Z,42.72
2023-01-10T10:46:20.155Z,39.40
2023-01-10T10:49:41.880Z,44.05
2023-01-10T10:52:22.740Z,42.22
2023-01-10T10:54:53.284Z,34.78
2023-01-10T10:57:29.112Z,33.50
2023-01-10T10:59:59.482Z,29.45
2023-01-10T11:02:39.369Z,49.75
2023-01-10T11:05:36.123Z,50.20
2023-01-10T11:08:14.657Z,47.30
2023-01-10T11:10:48.583Z,34.95
2023-01-10T11:13:34.767Z,38.35
2023-01-10T11:16:06.708Z,30.80
2023-01-10T11:18:35.315Z,37.22
2023-01-10T11:21:13.905Z,35.90
2023-01-10T11:23:52.851Z,41.15
2023-01-10T11:26:24.253Z,39.88
2023-01-10T11:29:05.838Z,44.22
2023-01-10T11:31:35.972Z,30.02
2023-01-10T11:34:20.932Z,30.60
2023-01-10T11:37:01.107Z,33.78
2023-01-10T11:39:31.527Z,33.85
2023-01-10T11:42:25.358Z,30.05
2023-01-10T11:44:53.807Z,27.52
2023-01-10T11:47:22.724Z,33.47
2023-01-10T11:49:52.004Z,43.63
2023-01-10T11:52:27.482Z,34.70
2023-01-10T11:55:00.846Z,39.78
2023-01-10T11:57:32.286Z,34.10
2023-01-10T12:00:10.046Z,32.08
2023-01-10T12:02:46.196Z,22.67
2023-01-10T12:05:21.808Z,26.20
2023-01-10T12:08:09.906Z,29.05
2023-01-10T12:10:38.089Z,25.38
2023-01-10T12:13:17.311Z,25.10
2023-01-10T12:15:47.208Z,31.77
2023-01-10T12:18:18.011Z,25.88
2023-01-10T12:20:52.802Z,29.42
2023-01-10T12:23:25.327Z,25.80
2023-01-10T12:26:10.740Z,26.40
2023-01-10T12:28:54.373Z,28.23
2023-01-10T12:31:23.900Z,25.58
2023-01-10T12:34:04.401Z,24.77
2023-01-10T12:37:27.720Z,24.67
2023-01-10T12:40:36.154Z,28.02
2023-01-10T12:43:32.186Z,24.42
2023-01-10T12:47:06.660Z,22.00
2023-01-10T12:49:49.677Z,25.23
2023-01-10T12:52:45.876Z,25.95
2023-01-10T12:55:23.867Z,23.60
2023-01-10T12:57:58.166Z,22.33
2023-01-10T13:00:48.566Z,26.75
2023-01-10T13:03:24.951Z,25.17
2023-01-10T13:05:54.530Z,22.23
2023-01-10T13:08:28.458Z,25.27
2023-01-10T13:10:59.738Z,24.67
2023-01-10T13:13:52.307Z,25.38
2023-01-10T13:16:56.605Z,24.92
2023-01-10T13:19:28.284Z,25.52
2023-01-10T13:22:23.784Z,25.45
2023-01-10T13:25:01.993Z,23.10
2023-01-10T13:27:34.530Z,25.30
2023-01-10T13:30:25.236Z,24.60
2023-01-10T13:33:07.977Z,23.73
2023-01-10T13:35:43.866Z,26.23
2023-01-10T13:38:44.388Z,23.45
2023-01-10T13:41:33.053Z,27.25
2023-01-10T13:44:03.373Z,24.70
2023-01-10T13:46:31.658Z,22.58
2023-01-10T13:49:03.921Z,24.80
2023-01-10T13:51:32.992Z,22.65
2023-01-10T13:54:18.138Z,26.33
2023-01-10T13:56:46.976Z,23.42
2023-01-10T14:00:20.487Z,24.40
2023-01-10T14:02:49.212Z,22.95
2023-01-10T14:05:21.349Z,23.95
2023-01-10T14:07:55.203Z,22.90
2023-01-10T14:10:33.247Z,25.05
2023-01-10T14:13:10.160Z,23.30
2023-01-10T14:15:43.453Z,27.52
2023-01-10T14:18:22.396Z,24.88
2023-01-10T14:21:10.233Z,21.50
2023-01-10T14:23:49.357Z,24.83
2023-01-10T14:26:34.663Z,22.23
2023-01-10T14:29:14.407Z,19.40
2023-01-10T14:31:48.825Z,60.75
2023-01-10T14:34:28.760Z,20.25
2023-01-10T14:37:17.050Z,17.33
2023-01-10T14:39:46.372Z,15.52
2023-01-10T14:42:18.460Z,17.23
2023-01-10T14:45:04.352Z,16.27
2023-01-10T14:47:35.657Z,17.88
2023-01-10T14:50:07.805Z,17.60
2023-01-10T14:52:36.137Z,15.70
2023-01-10T14:55:18.451Z,18.20
2023-01-10T14:58:03.535Z,19.70
2023-01-10T15:00:41.033Z,20.83
2023-01-10T15:03:19.953Z,19.52
2023-01-10T15:05:58.453Z,17.17
2023-01-10T15:08:32.151Z,20.15
2023-01-10T15:11:07.066Z,20.70
2023-01-10T15:13:46.088Z,21.67
2023-01-10T15:16:25.006Z,23.95
2023-01-10T15:18:53.833Z,24.05
2023-01-10T15:21:24.428Z,21.05
2023-01-10T15:23:52.836Z,28.13
2023-01-10T15:26:34.530Z,28.05
2023-01-10T15:31:44.709Z,21.05
2023-01-10T15:34:20.388Z,21.13
2023-01-10T15:36:57.529Z,27.30
2023-01-10T15:39:34.690Z,28.05
2023-01-10T15:42:09.715Z,26.17
2023-01-10T15:44:56.807Z,32.75
2023-01-10T15:47:53.178Z,31.88
2023-01-10T15:50:32.904Z,31.90
2023-01-10T15:53:10.264Z,35.10
2023-01-10T15:56:10.966Z,34.72
2023-01-10T15:58:43.206Z,29.10
2023-01-10T16:01:16.085Z,22.95
2023-01-10T16:04:05.469Z,30.35
2023-01-10T16:06:37.123Z,29.85
2023-01-10T16:09:21.417Z,32.35
2023-01-10T16:12:12.222Z,36.10
2023-01-10T16:14:40.528Z,31.10
2023-01-10T16:17:09.184Z,32.85
2023-01-10T16:19:37.822Z,37.58
2023-01-10T16:22:06.158Z,44.95
2023-01-10T16:24:41.610Z,37.92
2023-01-10T16:27:11.498Z,36.78
2023-01-10T16:29:39.868Z,35.65
2023-01-10T16:32:15.680Z,36.97
2023-01-10T16:34:44.352Z,37.58
2023-01-10T16:37:12.805Z,36.58
2023-01-10T16:39:41.242Z,33.20
2023-01-10T16:42:28.597Z,30.75
2023-01-10T16:44:57.298Z,30.58
2023-01-10T16:47:25.558Z,26.80
2023-01-10T16:49:53.754Z,23.15
2023-01-10T16:52:21.929Z,18.65
2023-01-10T16:54:50.087Z,18.23
2023-01-10T16:57:18.691Z,23.10
2023-01-10T16:59:47.116Z,22.20
2023-01-10T17:02:21.972Z,18.92
2023-01-10T17:04:50.522Z,20.48
2023-01-10T17:07:19.081Z,19.25
2023-01-10T17:09:47.237Z,18.33
2023-01-10T17:12:20.067Z,17.20
2023-01-10T17:14:48.733Z,21.13
2023-01-10T17:17:17.035Z,19.48
2023-01-10T17:19:47.636Z,18.63
2023-01-10T17:22:17.206Z,20.50
2023-01-10T17:24:45.544Z,19.40
2023-01-10T17:27:13.926Z,18.50
2023-01-10T17:29:42.780Z,10.10
2023-01-10T17:32:11.648Z,10.35
2023-01-10T17:34:40.431Z,11.82
2023-01-10T17:37:08.976Z,11.52
2023-01-10T17:39:38.063Z,16.48
2023-01-10T17:42:07.050Z,50.70
2023-01-10T17:44:36.711Z,47.60
2023-01-10T17:47:04.983Z,32.85
2023-01-10T17:49:33.553Z,21.90
2023-01-10T17:52:02.333Z,22.17
2023-01-10T17:54:31.528Z,20.88
2023-01-10T17:56:59.842Z,20.50
2023-01-10T17:59:28.879Z,25.02
2023-01-10T18:01:57.476Z,25.13
2023-01-10T18:04:26.080Z,32.42
2023-01-10T18:06:54.338Z,30.70
2023-01-10T18:09:22.564Z,23.08
2023-01-10T18:11:51.734Z,25.80
2023-01-10T18:14:38.360Z,21.30
2023-01-10T18:17:10.687Z,24.60
2023-01-10T18:19:39.338Z,19.45
2023-01-10T18:22:27.568Z,25.17
2023-01-10T18:24:58.309Z,19.33
2023-01-10T18:27:28.255Z,20.10
2023-01-10T18:29:56.965Z,20.20
2023-01-10T18:32:26.351Z,19.63
2023-01-10T18:34:55.476Z,22.00
2023-01-10T18:37:24.070Z,19.88
2023-01-10T18:39:53.389Z,27.35
2023-01-10T18:42:21.685Z,24.55
2023-01-10T18:44:50.368Z,25.42
2023-01-10T18:47:18.418Z,26.60
2023-01-10T18:49:47.915Z,24.13
2023-01-10T18:52:17.021Z,27.70
2023-01-10T18:54:47.809Z,22.35
2023-01-10T18:57:16.325Z,22.30
2023-01-10T18:59:44.777Z,26.25
2023-01-10T19:02:16.957Z,21.00
2023-01-10T19:04:46.587Z,24.05
2023-01-10T19:07:15.048Z,26.73
2023-01-10T19:09:43.593Z,29.92
2023-01-10T19:12:12.760Z,26.55
2023-01-10T19:14:41.706Z,25.95
2023-01-10T19:17:18.570Z,25.55
2023-01-10T19:19:46.835Z,18.30
2023-01-10T19:22:15.435Z,21.45
2023-01-10T19:24:44.346Z,23.70
2023-01-10T19:27:13.666Z,20.05
2023-01-10T19:29:46.564Z,19.35
2023-01-10T19:32:15.350Z,20.83
2023-01-10T19:34:46.304Z,21.77
2023-01-10T19:37:15.241Z,24.90
2023-01-10T19:39:44.803Z,30.63
2023-01-10T19:42:13.349Z,32.25
2023-01-10T19:44:45.018Z,32.75
2023-01-10T19:49:43.252Z,26.42
2023-01-10T19:52:12.636Z,22.35
2023-01-10T19:54:41.977Z,21.48
2023-01-10T19:57:11.048Z,24.60
2023-01-10T19:59:42.256Z,24.63
2023-01-10T20:02:16.938Z,22.60
2023-01-10T20:04:50.088Z,25.55
2023-01-10T20:07:19.004Z,25.90
2023-01-10T20:09:47.764Z,34.90
2023-01-10T20:12:17.733Z,25.88
2023-01-10T20:14:46.696Z,29.73
2023-01-10T20:17:15.348Z,25.00
2023-01-10T20:19:44.033Z,22.95
2023-01-10T20:22:12.799Z,24.50
2023-01-10T20:24:41.414Z,26.42
2023-01-10T20:27:10.839Z,26.75
2023-01-10T20:29:43.000Z,25.95
2023-01-10T20:32:14.221Z,26.88
2023-01-10T20:34:44.916Z,65.22
2023-01-10T20:37:14.305Z,52.45
2023-01-10T20:39:42.788Z,42.90
2023-01-10T20:42:11.128Z,34.25
2023-01-10T20:44:40.555Z,39.38
2023-01-10T20:47:09.235Z,40.78
2023-01-10T20:49:38.004Z,31.92
2023-01-10T20:52:06.386Z,35.47
2023-01-10T20:54:36.603Z,28.42
2023-01-10T20:57:05.783Z,26.65
2023-01-10T20:59:34.578Z,22.95
2023-01-10T21:02:04.041Z,26.13
2023-01-10T21:04:34.071Z,20.30
2023-01-10T21:07:02.995Z,25.73
2023-01-10T21:09:32.371Z,28.00
2023-01-10T21:12:21.487Z,23.35
2023-01-10T21:14:54.806Z,26.17
2023-01-10T21:17:23.632Z,27.30
2023-01-10T21:19:52.343Z,23.52
2023-01-10T21:22:21.473Z,26.90
2023-01-10T21:24:50.270Z,27.90
2023-01-10T21:27:22.237Z,29.60
2023-01-10T21:29:51.082Z,27.85
2023-01-10T21:32:20.402Z,26.73
2023-01-10T21:34:50.345Z,32.08
2023-01-10T21:37:20.084Z,27.40
2023-01-10T21:39:48.915Z,33.72
2023-01-10T21:42:39.218Z,27.67
2023-01-10T21:45:09.238Z,27.15
2023-01-10T21:47:39.858Z,30.77
2023-01-10T21:50:13.033Z,35.78
2023-01-10T21:52:42.687Z,31.73
2023-01-10T21:55:15.538Z,29.85
2023-01-10T21:57:44.366Z,32.53
2023-01-10T22:00:13.937Z,39.90
2023-01-10T22:02:42.799Z,42.92
2023-01-10T22:05:11.892Z,57.03
2023-01-10T22:07:41.990Z,50.17
2023-01-10T22:10:14.673Z,36.72
2023-01-10T22:12:43.281Z,33.13
2023-01-10T22:15:12.938Z,25.50
2023-01-10T22:17:41.691Z,27.40
2023-01-10T22:20:11.079Z,27.88
2023-01-10T22:22:39.898Z,28.80
2023-01-10T22:25:10.633Z,23.42
2023-01-10T22:27:39.907Z,26.27
2023-01-10T22:30:10.776Z,30.13
2023-01-10T22:32:39.937Z,28.45
2023-01-10T22:35:08.768Z,33.08
2023-01-10T22:37:37.496Z,30.27
2023-01-10T22:40:08.871Z,38.58
2023-01-10T22:42:37.657Z,40.83
2023-01-10T22:45:06.550Z,43.35
2023-01-10T22:47:35.082Z,37.47
2023-01-10T22:50:03.710Z,39.65
2023-01-10T22:52:33.197Z,35.75
2023-01-10T22:55:02.894Z,38.38
2023-01-10T22:57:33.190Z,32.53
2023-01-10T23:00:02.964Z,30.05
2023-01-10T23:02:32.212Z,27.77
2023-01-10T23:05:00.885Z,30.13
2023-01-10T23:07:29.733Z,32.08
2023-01-10T23:09:59.079Z,33.45
2023-01-10T23:12:28.122Z,31.48
2023-01-10T23:14:56.742Z,30.38
2023-01-10T23:17:24.884Z,32.88
2023-01-10T23:19:53.033Z,37.45
2023-01-10T23:22:21.588Z,43.83
2023-01-10T23:24:49.824Z,40.40
2023-01-10T23:27:19.266Z,39.65
2023-01-10T23:29:47.772Z,36.97
2023-01-10T23:32:15.870Z,35.33
2023-01-10T23:34:44.483Z,29.10
2023-01-10T23:37:12.654Z,33.40
2023-01-10T23:39:40.940Z,30.08
2023-01-10T23:42:10.198Z,28.58
2023-01-10T23:44:38.765Z,26.65
2023-01-10T23:47:11.192Z,29.20
2023-01-10T23:49:39.726Z,29.67
2023-01-10T23:52:07.820Z,28.50
2023-01-10T23:54:36.955Z,28.88
2023-01-10T23:57:05.148Z,34.47
2023-01-10T23:59:33.752Z,31.25
